createdAt,value
2019-04-05T00:00:20.008Z,99309.00
2019-04-05T00:02:49.596Z,99316.00
2019-04-05T00:05:19.064Z,99325.00
2019-04-05T00:07:48.503Z,99315.00
2019-04-05T00:10:18.192Z,99317.00
2019-04-05T00:12:47.662Z,99316.00
2019-04-05T00:15:17.260Z,99316.00
2019-04-05T00:17:46.708Z,99320.00
2019-04-05T00:20:16.989Z,99322.00
2019-04-05T00:22:46.424Z,99317.00
2019-04-05T00:25:15.882Z,99317.00
2019-04-05T00:27:45.351Z,99318.00
2019-04-05T00:30:15.507Z,99322.00
2019-04-05T00:32:44.956Z,99323.00
2019-04-05T00:35:14.405Z,99315.00
2019-04-05T00:37:43.933Z,99321.00
2019-04-05T00:40:13.765Z,99324.00
2019-04-05T00:42:43.411Z,99326.00
2019-04-05T00:45:13.346Z,99316.00
2019-04-05T00:47:42.801Z,99326.00
2019-04-05T00:50:12.871Z,99323.00
2019-04-05T00:52:42.334Z,99323.00
2019-04-05T00:55:12.283Z,99332.00
2019-04-05T00:57:41.821Z,99333.00
2019-04-05T01:00:11.980Z,99328.00
2019-04-05T01:02:41.432Z,99334.00
2019-04-05T01:05:11.016Z,99326.00
2019-04-05T01:07:40.803Z,99326.00
2019-04-05T01:10:10.939Z,99332.00
2019-04-05T01:12:42.111Z,99329.00
2019-04-05T01:15:12.864Z,99336.00
2019-04-05T01:17:42.736Z,99333.00
2019-04-05T01:20:13.317Z,99339.00
2019-04-05T01:22:44.714Z,99332.00
2019-04-05T01:25:14.393Z,99334.00
2019-04-05T01:27:44.233Z,99337.00
2019-04-05T01:30:15.289Z,99333.00
2019-04-05T01:32:44.907Z,99329.00
2019-04-05T01:35:14.535Z,99326.00
2019-04-05T01:37:44.672Z,99329.00
2019-04-05T01:40:15.364Z,99332.00
2019-04-05T01:42:45.177Z,99340.00
2019-04-05T01:45:15.457Z,99336.00
2019-04-05T01:47:44.957Z,99338.00
2019-04-05T01:50:14.768Z,99337.00
2019-04-05T01:52:45.050Z,99334.00
2019-04-05T01:55:14.664Z,99337.00
2019-04-05T01:57:44.135Z,99337.00
2019-04-05T02:00:14.494Z,99335.00
2019-04-05T02:02:44.152Z,99335.00
2019-04-05T02:05:14.336Z,99336.00
2019-04-05T02:07:44.435Z,99336.00
2019-04-05T02:10:14.797Z,99336.00
2019-04-05T02:12:44.542Z,99338.00
2019-04-05T02:15:27.359Z,99336.00
2019-04-05T02:17:57.536Z,99335.00
2019-04-05T02:20:27.390Z,99340.00
2019-04-05T02:22:57.153Z,99339.00
2019-04-05T02:25:26.678Z,99343.00
2019-04-05T02:27:56.341Z,99341.00
2019-04-05T02:30:26.691Z,99349.00
2019-04-05T02:32:56.405Z,99349.00
2019-04-05T02:35:26.455Z,99351.00
2019-04-05T02:37:56.137Z,99349.00
2019-04-05T02:40:28.426Z,99360.00
2019-04-05T02:43:02.473Z,99352.00
2019-04-05T02:45:36.392Z,99357.00
2019-04-05T02:48:10.207Z,99359.00
2019-04-05T02:50:44.265Z,99370.00
2019-04-05T02:53:15.652Z,99369.00
2019-04-05T02:55:46.688Z,99366.00
2019-04-05T02:58:17.037Z,99371.00
2019-04-05T03:00:47.314Z,99365.00
2019-04-05T03:03:17.735Z,99369.00
2019-04-05T03:05:48.435Z,99370.00
2019-04-05T03:08:19.142Z,99372.00
2019-04-05T03:11:04.567Z,99366.00
2019-04-05T03:13:38.597Z,99373.00
2019-04-05T03:16:20.855Z,99367.00
2019-04-05T03:19:07.156Z,99375.00
2019-04-05T03:21:41.233Z,99372.00
2019-04-05T03:24:15.318Z,99370.00
2019-04-05T03:26:49.391Z,99378.00
2019-04-05T03:29:19.203Z,99380.00
2019-04-05T03:31:49.020Z,99384.00
2019-04-05T03:34:18.908Z,99375.00
2019-04-05T03:36:51.662Z,99373.00
2019-04-05T03:39:19.904Z,99374.00
2019-04-05T03:41:49.368Z,99364.00
2019-04-05T03:44:22.757Z,99367.00
2019-04-05T03:46:56.762Z,99383.00
2019-04-05T03:49:23.030Z,99375.00
2019-04-05T03:51:52.730Z,99379.00
2019-04-05T03:54:23.080Z,99384.00
2019-04-05T03:56:52.740Z,99382.00
2019-04-05T03:59:22.423Z,99381.00
2019-04-05T04:01:52.401Z,99388.00
2019-04-05T04:04:22.431Z,99384.00
2019-04-05T04:06:51.858Z,99384.00
2019-04-05T04:09:21.742Z,99387.00
2019-04-05T04:11:51.461Z,99394.00
2019-04-05T04:14:21.253Z,99397.00
2019-04-05T04:16:51.148Z,99403.00
2019-04-05T04:19:21.236Z,99399.00
2019-04-05T04:22:11.658Z,99395.00
2019-04-05T04:24:41.365Z,99395.00
2019-04-05T04:27:11.361Z,99403.00
2019-04-05T04:29:41.896Z,99410.00
2019-04-05T04:32:11.805Z,99420.00
2019-04-05T04:34:41.311Z,99414.00
2019-04-05T04:37:11.171Z,99418.00
2019-04-05T04:39:41.600Z,99421.00
2019-04-05T04:42:12.163Z,99426.00
2019-04-05T04:44:42.580Z,99429.00
2019-04-05T04:47:25.494Z,99431.00
2019-04-05T04:49:45.283Z,99432.00
2019-04-05T04:52:16.281Z,99437.00
2019-04-05T04:54:45.778Z,99430.00
2019-04-05T04:57:15.279Z,99431.00
2019-04-05T04:59:45.070Z,99429.00
2019-04-05T05:02:14.715Z,99432.00
2019-04-05T05:04:45.109Z,99434.00
2019-04-05T05:07:15.571Z,99427.00
2019-04-05T05:09:45.112Z,99444.00
2019-04-05T05:12:14.732Z,99436.00
2019-04-05T05:14:44.622Z,99436.00
2019-04-05T05:17:14.219Z,99442.00
2019-04-05T05:19:44.137Z,99456.00
2019-04-05T05:22:13.783Z,99448.00
2019-04-05T05:24:43.405Z,99451.00
2019-04-05T05:27:13.325Z,99463.00
2019-04-05T05:29:43.117Z,99464.00
2019-04-05T05:32:12.866Z,99470.00
2019-04-05T05:34:42.758Z,99458.00
2019-04-05T05:37:12.712Z,99467.00
2019-04-05T05:39:42.181Z,99474.00
2019-04-05T05:42:11.881Z,99465.00
2019-04-05T05:44:41.338Z,99465.00
2019-04-05T05:47:10.797Z,99467.00
2019-04-05T05:49:40.287Z,99478.00
2019-04-05T05:52:10.111Z,99476.00
2019-04-05T05:54:39.572Z,99473.00
2019-04-05T05:57:09.022Z,99476.00
2019-04-05T05:59:38.474Z,99483.00
2019-04-05T06:02:07.944Z,99482.00
2019-04-05T06:04:37.402Z,99484.00
2019-04-05T06:07:06.865Z,99489.00
2019-04-05T06:09:36.294Z,99488.00
2019-04-05T06:12:05.724Z,99480.00
2019-04-05T06:14:35.168Z,99481.00
2019-04-05T06:17:04.606Z,99491.00
2019-04-05T06:19:34.109Z,99487.00
2019-04-05T06:22:03.583Z,99488.00
2019-04-05T06:24:33.029Z,99491.00
2019-04-05T06:27:02.559Z,99493.00
2019-04-05T06:29:32.022Z,99487.00
2019-04-05T06:32:01.507Z,99491.00
2019-04-05T06:34:31.027Z,99486.00
2019-04-05T06:37:00.528Z,99488.00
2019-04-05T06:39:30.016Z,99501.00
2019-04-05T06:41:59.536Z,99489.00
2019-04-05T06:44:29.032Z,99490.00
2019-04-05T06:46:58.461Z,99500.00
2019-04-05T06:49:27.917Z,99498.00
2019-04-05T06:51:57.367Z,99494.00
2019-04-05T06:54:26.843Z,99511.00
2019-04-05T06:56:56.283Z,99511.00
2019-04-05T06:59:25.736Z,99515.00
2019-04-05T07:01:55.217Z,99520.00
2019-04-05T07:04:24.665Z,99525.00
2019-04-05T07:06:54.225Z,99518.00
2019-04-05T07:09:23.671Z,99526.00
2019-04-05T07:11:53.100Z,99523.00
2019-04-05T07:14:22.557Z,99530.00
2019-04-05T07:16:51.991Z,99527.00
2019-04-05T07:19:21.466Z,99522.00
2019-04-05T07:21:50.931Z,99523.00
2019-04-05T07:24:20.406Z,99522.00
2019-04-05T07:26:49.858Z,99525.00
2019-04-05T07:29:19.341Z,99536.00
2019-04-05T07:31:48.829Z,99528.00
2019-04-05T07:34:18.370Z,99531.00
2019-04-05T07:36:47.839Z,99528.00
2019-04-05T07:39:17.367Z,99527.00
2019-04-05T07:41:46.862Z,99530.00
2019-04-05T07:44:16.315Z,99532.00
2019-04-05T07:46:46.701Z,99540.00
2019-04-05T07:49:16.200Z,99541.00
2019-04-05T07:51:45.662Z,99535.00
2019-04-05T07:54:15.103Z,99532.00
2019-04-05T07:56:46.271Z,99538.00
2019-04-05T07:59:15.901Z,99534.00
2019-04-05T08:01:45.437Z,99542.00
2019-04-05T08:04:14.997Z,99541.00
2019-04-05T08:06:46.503Z,99535.00
2019-04-05T08:09:18.759Z,99533.00
2019-04-05T08:11:49.122Z,99542.00
2019-04-05T08:14:20.510Z,99543.00
2019-04-05T09:39:35.104Z,99524.00
2019-04-05T09:42:04.714Z,99527.00
2019-04-05T09:44:34.199Z,99527.00
2019-04-05T09:47:03.630Z,99524.00
2019-04-05T09:49:36.887Z,99529.00
2019-04-05T09:52:04.292Z,99528.00
2019-04-05T09:54:33.762Z,99528.00
2019-04-05T09:57:03.245Z,99528.00
2019-04-05T09:59:32.718Z,99525.00
2019-04-05T10:02:02.177Z,99529.00
2019-04-05T10:04:31.635Z,99534.00
2019-04-05T10:07:01.283Z,99526.00
2019-04-05T10:09:30.811Z,99518.00
2019-04-05T10:12:00.286Z,99528.00
2019-04-05T10:14:29.718Z,99522.00
2019-04-05T10:16:59.175Z,99512.00
2019-04-05T10:19:28.677Z,99517.00
2019-04-05T10:21:58.063Z,99524.00
2019-04-05T10:24:27.525Z,99516.00
2019-04-05T10:26:57.047Z,99524.00
2019-04-05T10:29:26.496Z,99514.00
2019-04-05T10:31:55.920Z,99522.00
2019-04-05T10:34:25.446Z,99515.00
2019-04-05T10:36:54.876Z,99514.00
2019-04-05T10:39:43.667Z,99515.00
2019-04-05T10:42:30.927Z,99509.00
2019-04-05T10:45:00.722Z,99509.00
2019-04-05T10:47:30.644Z,99518.00
2019-04-05T10:50:03.443Z,99510.00
2019-04-05T10:52:31.265Z,99514.00
2019-04-05T10:55:00.706Z,99492.00
2019-04-05T10:57:30.206Z,99500.00
2019-04-05T10:59:59.678Z,99499.00
2019-04-05T11:02:29.133Z,99495.00
2019-04-05T11:04:58.586Z,99508.00
2019-04-05T11:07:28.029Z,99495.00
2019-04-05T11:09:57.479Z,99496.00
2019-04-05T11:12:26.928Z,99499.00
2019-04-05T11:14:56.401Z,99502.00
2019-04-05T11:17:25.848Z,99492.00
2019-04-05T11:19:55.295Z,99491.00
2019-04-05T11:22:24.773Z,99496.00
2019-04-05T11:24:54.222Z,99500.00
2019-04-05T11:27:23.736Z,99495.00
2019-04-05T11:29:53.194Z,99488.00
2019-04-05T11:32:22.824Z,99487.00
2019-04-05T11:34:52.783Z,99498.00
2019-04-05T11:37:22.796Z,99491.00
2019-04-05T11:39:52.645Z,99489.00
2019-04-05T11:42:24.413Z,99487.00
2019-04-05T11:44:56.549Z,99481.00
2019-04-05T11:47:26.647Z,99470.00
2019-04-05T11:49:57.870Z,99478.00
2019-04-05T11:52:27.420Z,99470.00
2019-04-05T11:54:56.860Z,99473.00
2019-04-05T11:57:26.319Z,99468.00
2019-04-05T11:59:55.781Z,99466.00
2019-04-05T12:02:32.745Z,99467.00
2019-04-05T12:05:02.374Z,99464.00
2019-04-05T12:07:31.833Z,99476.00
2019-04-05T12:10:01.263Z,99475.00
2019-04-05T12:12:30.737Z,99470.00
2019-04-05T12:15:00.197Z,99471.00
2019-04-05T12:17:29.645Z,99473.00
2019-04-05T12:20:02.304Z,99468.00
2019-04-05T12:22:30.242Z,99463.00
2019-04-05T12:25:00.569Z,99455.00
2019-04-05T12:27:31.356Z,99463.00
2019-04-05T12:30:00.805Z,99458.00
2019-04-05T12:32:34.521Z,99465.00
2019-04-05T12:35:01.709Z,99464.00
2019-04-05T12:37:31.131Z,99460.00
2019-04-05T12:40:00.587Z,99456.00
2019-04-05T12:42:30.055Z,99457.00
2019-04-05T12:44:59.513Z,99451.00
2019-04-05T12:47:28.934Z,99454.00
2019-04-05T12:49:58.419Z,99454.00
2019-04-05T12:52:28.346Z,99456.00
2019-04-05T12:54:57.794Z,99449.00
2019-04-05T12:57:27.774Z,99447.00
2019-04-05T12:59:57.872Z,99434.00
2019-04-05T13:02:33.322Z,99448.00
2019-04-05T13:04:58.677Z,99444.00
2019-04-05T13:07:28.569Z,99444.00
2019-04-05T13:09:58.025Z,99444.00
2019-04-05T13:12:27.476Z,99450.00
2019-04-05T13:15:11.225Z,99432.00
2019-04-05T13:17:31.050Z,99431.00
2019-04-05T13:20:00.886Z,99439.00
2019-04-05T13:22:32.554Z,99438.00
2019-04-05T13:25:01.626Z,99436.00
2019-04-05T13:27:31.098Z,99439.00
2019-04-05T13:30:00.523Z,99435.00
2019-04-05T13:32:29.977Z,99432.00
2019-04-05T13:34:59.444Z,99438.00
2019-04-05T13:37:30.756Z,99426.00
2019-04-05T13:40:00.540Z,99435.00
2019-04-05T13:42:31.901Z,99428.00
2019-04-05T13:45:01.279Z,99433.00
2019-04-05T13:47:32.975Z,99430.00
2019-04-05T13:50:01.933Z,99428.00
2019-04-05T13:52:31.356Z,99418.00
2019-04-05T13:55:00.803Z,99423.00
2019-04-05T13:57:30.347Z,99432.00
2019-04-05T13:59:59.792Z,99425.00
2019-04-05T14:02:29.241Z,99425.00
2019-04-05T14:04:58.716Z,99423.00
2019-04-05T14:07:28.163Z,99422.00
2019-04-05T14:09:57.691Z,99416.00
2019-04-05T14:12:27.164Z,99422.00
2019-04-05T14:14:56.608Z,99420.00
2019-04-05T14:17:26.113Z,99426.00
2019-04-05T14:19:55.591Z,99416.00
2019-04-05T14:22:25.044Z,99425.00
2019-04-05T14:24:56.651Z,99421.00
2019-04-05T14:27:25.684Z,99426.00
2019-04-05T14:29:55.106Z,99428.00
2019-04-05T14:32:24.556Z,99422.00
2019-04-05T14:34:54.872Z,99413.00
2019-04-05T14:37:25.073Z,99414.00
2019-04-05T14:39:54.614Z,99411.00
2019-04-05T14:42:24.073Z,99409.00
2019-04-05T14:44:53.501Z,99412.00
2019-04-05T14:47:23.108Z,99421.00
2019-04-05T14:49:52.584Z,99417.00
2019-04-05T14:52:22.035Z,99428.00
2019-04-05T14:54:51.488Z,99424.00
2019-04-05T14:57:20.976Z,99423.00
2019-04-05T14:59:50.399Z,99412.00
2019-04-05T15:02:19.825Z,99417.00
2019-04-05T15:04:49.568Z,99420.00
2019-04-05T15:07:20.838Z,99418.00
2019-04-05T15:09:50.171Z,99422.00
2019-04-05T15:12:19.634Z,99425.00
2019-04-05T15:14:49.078Z,99421.00
2019-04-05T15:17:18.529Z,99428.00
2019-04-05T15:19:48.004Z,99434.00
2019-04-05T15:22:17.449Z,99443.00
2019-04-05T15:24:47.550Z,99441.00
2019-04-05T15:27:17.149Z,99443.00
2019-04-05T15:29:46.591Z,99449.00
2019-04-05T15:32:16.043Z,99449.00
2019-04-05T15:34:45.517Z,99453.00
2019-04-05T15:37:16.110Z,99456.00
2019-04-05T15:39:45.974Z,99459.00
2019-04-05T15:42:15.445Z,99465.00
2019-04-05T15:44:44.899Z,99463.00
2019-04-05T15:47:14.348Z,99464.00
2019-04-05T15:49:43.806Z,99466.00
2019-04-05T15:52:18.978Z,99462.00
2019-04-05T15:54:44.414Z,99464.00
2019-04-05T15:57:13.865Z,99460.00
2019-04-05T15:59:45.086Z,99466.00
2019-04-05T16:02:14.647Z,99477.00
2019-04-05T16:04:44.147Z,99468.00
2019-04-05T16:07:13.596Z,99478.00
2019-04-05T16:09:43.022Z,99474.00
2019-04-05T16:12:12.512Z,99471.00
2019-04-05T16:14:41.964Z,99469.00
2019-04-05T16:17:12.581Z,99478.00
2019-04-05T16:19:42.305Z,99477.00
2019-04-05T16:22:11.858Z,99481.00
2019-04-05T16:24:41.289Z,99469.00
2019-04-05T16:27:10.799Z,99474.00
2019-04-05T16:29:40.304Z,99477.00
2019-04-05T16:32:09.753Z,99478.00
2019-04-05T16:34:39.241Z,99477.00
2019-04-05T16:37:08.669Z,99480.00
2019-04-05T16:39:38.194Z,99492.00
2019-04-05T16:42:10.079Z,99480.00
2019-04-05T16:44:38.837Z,99483.00
2019-04-05T16:47:08.246Z,99496.00
2019-04-05T16:49:37.750Z,99490.00
2019-04-05T16:52:07.173Z,99494.00
2019-04-05T16:54:36.621Z,99497.00
2019-04-05T16:57:06.167Z,99506.00
2019-04-05T16:59:35.653Z,99499.00
2019-04-05T17:02:05.249Z,99505.00
2019-04-05T17:04:34.858Z,99512.00
2019-04-05T17:07:04.281Z,99503.00
2019-04-05T17:09:33.754Z,99517.00
2019-04-05T17:12:03.206Z,99517.00
2019-04-05T17:14:32.654Z,99513.00
2019-04-05T17:17:02.109Z,99512.00
2019-04-05T17:19:31.599Z,99516.00
2019-04-05T17:22:01.217Z,99521.00
2019-04-05T17:24:30.671Z,99517.00
2019-04-05T17:27:00.145Z,99524.00
2019-04-05T17:29:29.649Z,99516.00
2019-04-05T17:31:59.110Z,99519.00
2019-04-05T17:34:28.631Z,99521.00
2019-04-05T17:36:58.085Z,99517.00
2019-04-05T17:39:27.500Z,99518.00
2019-04-05T17:41:57.401Z,99511.00
2019-04-05T17:44:26.821Z,99514.00
2019-04-05T17:46:56.276Z,99509.00
2019-04-05T17:49:26.045Z,99509.00
2019-04-05T17:51:55.493Z,99513.00
2019-04-05T17:54:24.940Z,99513.00
2019-04-05T17:56:54.525Z,99514.00
2019-04-05T17:59:24.151Z,99515.00
2019-04-05T18:01:53.574Z,99521.00
2019-04-05T18:04:23.216Z,99531.00
2019-04-05T18:06:52.642Z,99526.00
2019-04-05T18:09:22.067Z,99523.00
2019-04-05T18:11:51.611Z,99531.00
2019-04-05T18:14:21.348Z,99530.00
2019-04-05T18:16:50.786Z,99538.00
2019-04-05T18:19:20.260Z,99539.00
2019-04-05T18:21:49.712Z,99541.00
2019-04-05T18:24:19.203Z,99551.00
2019-04-05T18:26:48.672Z,99551.00
2019-04-05T18:29:18.150Z,99550.00
2019-04-05T18:31:47.572Z,99550.00
2019-04-05T18:34:17.034Z,99547.00
2019-04-05T18:36:46.689Z,99552.00
2019-04-05T18:39:16.117Z,99552.00
2019-04-05T18:41:45.608Z,99554.00
2019-04-05T18:44:15.060Z,99565.00
2019-04-05T18:46:44.522Z,99556.00
2019-04-05T18:49:14.290Z,99556.00
2019-04-05T18:51:43.744Z,99560.00
2019-04-05T18:54:13.239Z,99561.00
2019-04-05T18:56:42.697Z,99553.00
2019-04-05T18:59:12.157Z,99562.00
2019-04-05T19:01:41.618Z,99567.00
2019-04-05T19:04:11.080Z,99569.00
2019-04-05T19:06:40.578Z,99557.00
2019-04-05T19:09:12.096Z,99568.00
2019-04-05T19:11:41.662Z,99561.00
2019-04-05T19:14:11.088Z,99568.00
2019-04-05T19:16:40.667Z,99560.00
2019-04-05T19:19:10.166Z,99567.00
2019-04-05T19:21:39.594Z,99564.00
2019-04-05T19:24:09.071Z,99572.00
2019-04-05T19:26:38.546Z,99574.00
2019-04-05T19:29:07.971Z,99574.00
2019-04-05T19:49:16.198Z,99590.00
2019-04-05T19:51:45.634Z,99589.00
2019-04-05T19:54:15.152Z,99589.00
2019-04-05T19:56:44.636Z,99590.00
2019-04-05T19:59:14.064Z,99586.00
2019-04-05T20:01:43.665Z,99589.00
2019-04-05T20:04:13.111Z,99582.00
2019-04-05T20:06:42.549Z,99578.00
2019-04-05T20:09:12.199Z,99566.00
2019-04-05T20:11:44.442Z,99570.00
2019-04-05T20:14:13.894Z,99568.00
2019-04-05T20:16:44.021Z,99562.00
2019-04-05T20:19:13.453Z,99570.00
2019-04-05T20:21:42.905Z,99573.00
2019-04-05T20:24:14.307Z,99581.00
2019-04-05T20:26:43.565Z,99576.00
2019-04-05T20:29:13.055Z,99597.00
2019-04-05T20:31:42.485Z,99598.00
2019-04-05T20:34:11.955Z,99594.00
2019-04-05T20:36:41.400Z,99594.00
2019-04-05T20:39:10.872Z,99589.00
2019-04-05T20:41:40.361Z,99584.00
2019-04-05T20:44:09.848Z,99580.00
2019-04-05T20:46:39.308Z,99569.00
2019-04-05T20:49:08.851Z,99567.00
2019-04-05T20:51:38.325Z,99566.00
2019-04-05T20:54:07.804Z,99563.00
2019-04-05T20:56:37.270Z,99565.00
2019-04-05T20:59:06.751Z,99563.00
2019-04-05T21:01:36.181Z,99561.00
2019-04-05T21:04:05.613Z,99564.00
2019-04-05T21:06:35.092Z,99560.00
2019-04-05T21:09:07.295Z,99567.00
2019-04-05T21:11:36.736Z,99569.00
2019-04-05T21:14:06.287Z,99572.00
2019-04-05T21:16:36.021Z,99573.00
2019-04-05T21:19:05.450Z,99581.00
2019-04-05T21:21:34.914Z,99575.00
2019-04-05T21:24:04.353Z,99579.00
2019-04-05T21:26:33.799Z,99577.00
2019-04-05T21:29:03.280Z,99577.00
2019-04-05T21:31:32.720Z,99592.00
2019-04-05T21:34:02.228Z,99590.00
2019-04-05T21:36:31.677Z,99595.00
2019-04-05T21:39:01.111Z,99595.00
2019-04-05T21:41:30.564Z,99605.00
2019-04-05T21:44:00.039Z,99603.00
2019-04-05T21:46:29.498Z,99612.00
2019-04-05T21:48:58.947Z,99607.00
2019-04-05T21:51:28.399Z,99605.00
2019-04-05T21:53:57.840Z,99609.00
2019-04-05T21:56:27.295Z,99614.00
2019-04-05T21:58:56.776Z,99614.00
2019-04-05T22:01:27.189Z,99610.00
2019-04-05T22:03:56.828Z,99607.00
2019-04-05T22:06:26.280Z,99615.00
2019-04-05T22:08:55.705Z,99607.00
2019-04-05T22:11:27.545Z,99612.00
2019-04-05T22:13:56.351Z,99621.00
2019-04-05T22:16:25.804Z,99615.00
2019-04-05T22:18:56.896Z,99607.00
2019-04-05T22:21:26.342Z,99618.00
2019-04-05T22:23:55.770Z,99614.00
2019-04-05T22:26:25.220Z,99615.00
2019-04-05T22:28:54.695Z,99626.00
2019-04-05T22:31:24.154Z,99613.00
2019-04-05T22:33:53.609Z,99623.00
2019-04-05T22:36:23.158Z,99627.00
2019-04-05T22:38:52.597Z,99616.00
2019-04-05T22:41:22.059Z,99627.00
2019-04-05T22:43:51.520Z,99625.00
2019-04-05T22:46:20.940Z,99623.00
2019-04-05T22:48:50.392Z,99635.00
2019-04-05T22:51:19.862Z,99630.00
2019-04-05T22:53:49.325Z,99630.00
2019-04-05T22:56:18.779Z,99624.00
2019-04-05T22:58:48.239Z,99631.00
2019-04-05T23:01:17.693Z,99634.00
2019-04-05T23:03:47.145Z,99623.00
2019-04-05T23:06:16.633Z,99631.00
2019-04-05T23:08:46.069Z,99625.00
2019-04-05T23:11:15.531Z,99627.00
2019-04-05T23:13:44.989Z,99635.00
2019-04-05T23:16:14.415Z,99636.00
2019-04-05T23:18:43.865Z,99628.00
2019-04-05T23:21:13.335Z,99636.00
2019-04-05T23:23:42.787Z,99629.00
2019-04-05T23:26:12.261Z,99640.00
2019-04-05T23:28:41.734Z,99631.00
2019-04-05T23:31:11.170Z,99635.00
2019-04-05T23:33:40.596Z,99632.00
2019-04-05T23:36:10.056Z,99637.00
2019-04-05T23:38:58.846Z,99641.00
2019-04-05T23:41:28.308Z,99642.00
2019-04-05T23:43:57.759Z,99644.00
2019-04-05T23:46:27.237Z,99647.00
2019-04-05T23:48:56.680Z,99649.00
2019-04-05T23:51:26.129Z,99650.00
2019-04-05T23:53:55.579Z,99650.00
2019-04-05T23:56:25.058Z,99651.00
2019-04-05T23:58:54.481Z,99642.00
